sensor_id;sensor_type;location;lat;lon;timestamp;temperature;humidity
4755;DHT22;2391;47.212;7.542;2023-09-19T00:02:09;20.70;95.50
4755;DHT22;2391;47.212;7.542;2023-09-19T00:04:35;20.70;95.50
4755;DHT22;2391;47.212;7.542;2023-09-19T00:07:01;20.70;95.40
4755;DHT22;2391;47.212;7.542;2023-09-19T00:09:28;20.70;95.40
4755;DHT22;2391;47.212;7.542;2023-09-19T00:11:53;20.70;95.30
4755;DHT22;2391;47.212;7.542;2023-09-19T00:14:20;20.70;95.30
4755;DHT22;2391;47.212;7.542;2023-09-19T00:16:47;20.60;95.30
4755;DHT22;2391;47.212;7.542;2023-09-19T00:19:15;20.60;95.40
4755;DHT22;2391;47.212;7.542;2023-09-19T00:21:41;20.50;95.30
4755;DHT22;2391;47.212;7.542;2023-09-19T00:24:08;20.40;95.40
4755;DHT22;2391;47.212;7.542;2023-09-19T00:26:34;20.40;95.50
4755;DHT22;2391;47.212;7.542;2023-09-19T00:29:00;20.30;95.70
4755;DHT22;2391;47.212;7.542;2023-09-19T00:31:28;20.20;95.80
4755;DHT22;2391;47.212;7.542;2023-09-19T00:33:55;20.10;96.00
4755;DHT22;2391;47.212;7.542;2023-09-19T00:36:23;20.10;96.10
4755;DHT22;2391;47.212;7.542;2023-09-19T00:38:48;20.10;96.20
4755;DHT22;2391;47.212;7.542;2023-09-19T00:41:14;20.00;96.50
4755;DHT22;2391;47.212;7.542;2023-09-19T00:43:40;19.90;96.50
4755;DHT22;2391;47.212;7.542;2023-09-19T00:46:06;19.80;96.70
4755;DHT22;2391;47.212;7.542;2023-09-19T00:48:41;19.80;96.90
4755;DHT22;2391;47.212;7.542;2023-09-19T00:51:10;19.80;97.10
4755;DHT22;2391;47.212;7.542;2023-09-19T00:53:36;19.90;97.10
4755;DHT22;2391;47.212;7.542;2023-09-19T00:56:04;19.80;97.10
4755;DHT22;2391;47.212;7.542;2023-09-19T00:58:31;19.80;97.30
4755;DHT22;2391;47.212;7.542;2023-09-19T01:00:59;19.80;97.30
4755;DHT22;2391;47.212;7.542;2023-09-19T01:03:25;19.90;97.40
4755;DHT22;2391;47.212;7.542;2023-09-19T01:05:51;19.90;97.30
4755;DHT22;2391;47.212;7.542;2023-09-19T01:08:16;19.90;97.30
4755;DHT22;2391;47.212;7.542;2023-09-19T01:10:46;19.90;97.30
4755;DHT22;2391;47.212;7.542;2023-09-19T01:13:18;19.90;97.30
4755;DHT22;2391;47.212;7.542;2023-09-19T01:18:35;19.90;97.50
4755;DHT22;2391;47.212;7.542;2023-09-19T01:27:02;19.90;97.60
4755;DHT22;2391;47.212;7.542;2023-09-19T01:29:33;19.90;97.50
4755;DHT22;2391;47.212;7.542;2023-09-19T01:32:04;19.90;97.50
4755;DHT22;2391;47.212;7.542;2023-09-19T01:37:19;19.90;97.40
4755;DHT22;2391;47.212;7.542;2023-09-19T01:39:48;19.90;97.50
4755;DHT22;2391;47.212;7.542;2023-09-19T01:42:42;19.90;97.40
4755;DHT22;2391;47.212;7.542;2023-09-19T01:47:44;19.90;97.20
4755;DHT22;2391;47.212;7.542;2023-09-19T01:52:54;20.00;97.30
4755;DHT22;2391;47.212;7.542;2023-09-19T01:55:19;20.00;97.30
4755;DHT22;2391;47.212;7.542;2023-09-19T01:58:01;20.00;97.10
4755;DHT22;2391;47.212;7.542;2023-09-19T02:00:32;20.00;97.10
4755;DHT22;2391;47.212;7.542;2023-09-19T02:02:59;20.10;97.00
4755;DHT22;2391;47.212;7.542;2023-09-19T02:05:26;20.10;97.00
4755;DHT22;2391;47.212;7.542;2023-09-19T02:07:53;20.20;96.90
4755;DHT22;2391;47.212;7.542;2023-09-19T02:10:20;20.20;96.80
4755;DHT22;2391;47.212;7.542;2023-09-19T02:12:45;20.20;96.70
4755;DHT22;2391;47.212;7.542;2023-09-19T02:15:12;20.30;96.70
4755;DHT22;2391;47.212;7.542;2023-09-19T02:17:38;20.30;96.50
4755;DHT22;2391;47.212;7.542;2023-09-19T02:20:04;20.30;96.40
4755;DHT22;2391;47.212;7.542;2023-09-19T02:22:32;20.40;96.40
4755;DHT22;2391;47.212;7.542;2023-09-19T02:24:57;20.40;96.30
4755;DHT22;2391;47.212;7.542;2023-09-19T02:27:25;20.40;96.30
4755;DHT22;2391;47.212;7.542;2023-09-19T02:29:51;20.40;96.30
4755;DHT22;2391;47.212;7.542;2023-09-19T02:32:17;20.40;96.20
4755;DHT22;2391;47.212;7.542;2023-09-19T02:34:43;20.40;96.30
4755;DHT22;2391;47.212;7.542;2023-09-19T02:37:10;20.30;96.30
4755;DHT22;2391;47.212;7.542;2023-09-19T02:39:38;20.30;96.30
4755;DHT22;2391;47.212;7.542;2023-09-19T02:42:04;20.30;96.30
4755;DHT22;2391;47.212;7.542;2023-09-19T02:44:31;20.30;96.30
4755;DHT22;2391;47.212;7.542;2023-09-19T02:46:56;20.20;96.30
4755;DHT22;2391;47.212;7.542;2023-09-19T02:49:23;20.10;96.20
4755;DHT22;2391;47.212;7.542;2023-09-19T02:51:49;20.10;96.40
4755;DHT22;2391;47.212;7.542;2023-09-19T02:54:14;20.10;96.50
4755;DHT22;2391;47.212;7.542;2023-09-19T02:56:42;20.10;96.60
4755;DHT22;2391;47.212;7.542;2023-09-19T02:59:08;20.10;96.80
4755;DHT22;2391;47.212;7.542;2023-09-19T03:01:36;20.10;96.60
4755;DHT22;2391;47.212;7.542;2023-09-19T03:04:05;20.10;96.50
4755;DHT22;2391;47.212;7.542;2023-09-19T03:06:35;20.10;96.60
4755;DHT22;2391;47.212;7.542;2023-09-19T03:09:01;20.10;96.70
4755;DHT22;2391;47.212;7.542;2023-09-19T03:11:28;20.10;96.70
4755;DHT22;2391;47.212;7.542;2023-09-19T03:13:54;20.10;96.70
4755;DHT22;2391;47.212;7.542;2023-09-19T03:16:21;20.00;96.70
4755;DHT22;2391;47.212;7.542;2023-09-19T03:18:50;20.00;96.70
4755;DHT22;2391;47.212;7.542;2023-09-19T03:21:16;20.00;96.80
4755;DHT22;2391;47.212;7.542;2023-09-19T03:23:43;20.00;96.90
4755;DHT22;2391;47.212;7.542;2023-09-19T03:26:12;20.00;96.90
4755;DHT22;2391;47.212;7.542;2023-09-19T03:28:38;19.90;96.90
4755;DHT22;2391;47.212;7.542;2023-09-19T03:31:05;20.00;96.90
4755;DHT22;2391;47.212;7.542;2023-09-19T03:33:32;20.00;96.90
4755;DHT22;2391;47.212;7.542;2023-09-19T03:35:58;20.00;96.90
4755;DHT22;2391;47.212;7.542;2023-09-19T03:38:28;20.00;96.90
4755;DHT22;2391;47.212;7.542;2023-09-19T03:40:54;20.00;96.90
4755;DHT22;2391;47.212;7.542;2023-09-19T03:43:20;19.90;96.70
4755;DHT22;2391;47.212;7.542;2023-09-19T03:45:46;19.80;96.90
4755;DHT22;2391;47.212;7.542;2023-09-19T03:48:16;19.80;97.00
4755;DHT22;2391;47.212;7.542;2023-09-19T03:50:42;19.70;97.30
4755;DHT22;2391;47.212;7.542;2023-09-19T03:53:09;19.70;97.20
4755;DHT22;2391;47.212;7.542;2023-09-19T03:55:35;19.70;97.20
4755;DHT22;2391;47.212;7.542;2023-09-19T03:58:01;19.70;97.30
4755;DHT22;2391;47.212;7.542;2023-09-19T04:00:27;19.80;97.20
4755;DHT22;2391;47.212;7.542;2023-09-19T04:02:55;19.80;97.10
4755;DHT22;2391;47.212;7.542;2023-09-19T04:05:23;19.80;97.10
4755;DHT22;2391;47.212;7.542;2023-09-19T04:07:49;19.80;97.00
4755;DHT22;2391;47.212;7.542;2023-09-19T04:10:16;19.80;97.00
4755;DHT22;2391;47.212;7.542;2023-09-19T04:12:52;19.80;97.10
4755;DHT22;2391;47.212;7.542;2023-09-19T04:15:19;19.80;97.00
4755;DHT22;2391;47.212;7.542;2023-09-19T04:17:47;19.80;97.20
4755;DHT22;2391;47.212;7.542;2023-09-19T04:20:13;19.80;97.40
4755;DHT22;2391;47.212;7.542;2023-09-19T04:22:39;19.80;97.10
4755;DHT22;2391;47.212;7.542;2023-09-19T04:25:05;19.90;97.20
4755;DHT22;2391;47.212;7.542;2023-09-19T04:27:34;19.90;97.20
4755;DHT22;2391;47.212;7.542;2023-09-19T04:30:00;20.00;97.20
4755;DHT22;2391;47.212;7.542;2023-09-19T04:32:28;20.00;97.10
4755;DHT22;2391;47.212;7.542;2023-09-19T04:34:55;20.00;97.00
4755;DHT22;2391;47.212;7.542;2023-09-19T04:37:22;20.00;97.00
4755;DHT22;2391;47.212;7.542;2023-09-19T04:39:48;20.00;97.00
4755;DHT22;2391;47.212;7.542;2023-09-19T04:42:14;20.10;97.10
4755;DHT22;2391;47.212;7.542;2023-09-19T04:44:40;20.20;97.10
4755;DHT22;2391;47.212;7.542;2023-09-19T04:47:06;20.20;97.00
4755;DHT22;2391;47.212;7.542;2023-09-19T04:49:31;20.20;97.00
4755;DHT22;2391;47.212;7.542;2023-09-19T04:51:57;20.20;96.90
4755;DHT22;2391;47.212;7.542;2023-09-19T04:54:23;20.20;96.90
4755;DHT22;2391;47.212;7.542;2023-09-19T04:56:49;20.20;96.80
4755;DHT22;2391;47.212;7.542;2023-09-19T04:59:14;20.20;96.90
4755;DHT22;2391;47.212;7.542;2023-09-19T05:01:41;20.10;96.90
4755;DHT22;2391;47.212;7.542;2023-09-19T05:04:06;20.10;97.10
4755;DHT22;2391;47.212;7.542;2023-09-19T05:06:32;20.10;97.10
4755;DHT22;2391;47.212;7.542;2023-09-19T05:08:59;20.10;97.10
4755;DHT22;2391;47.212;7.542;2023-09-19T05:11:26;20.00;97.00
4755;DHT22;2391;47.212;7.542;2023-09-19T05:13:52;20.00;97.10
4755;DHT22;2391;47.212;7.542;2023-09-19T05:16:21;20.00;97.10
4755;DHT22;2391;47.212;7.542;2023-09-19T05:18:47;20.00;97.10
4755;DHT22;2391;47.212;7.542;2023-09-19T05:21:15;20.00;97.20
4755;DHT22;2391;47.212;7.542;2023-09-19T05:23:40;20.00;97.20
4755;DHT22;2391;47.212;7.542;2023-09-19T05:26:07;19.90;97.20
4755;DHT22;2391;47.212;7.542;2023-09-19T05:28:33;19.80;97.40
4755;DHT22;2391;47.212;7.542;2023-09-19T05:31:01;19.90;97.50
4755;DHT22;2391;47.212;7.542;2023-09-19T05:33:29;19.90;97.50
4755;DHT22;2391;47.212;7.542;2023-09-19T05:35:57;19.90;97.50
4755;DHT22;2391;47.212;7.542;2023-09-19T05:38:23;19.90;97.50
4755;DHT22;2391;47.212;7.542;2023-09-19T05:40:50;19.90;97.50
4755;DHT22;2391;47.212;7.542;2023-09-19T05:43:15;19.90;97.60
4755;DHT22;2391;47.212;7.542;2023-09-19T05:45:41;19.80;97.60
4755;DHT22;2391;47.212;7.542;2023-09-19T05:48:09;19.80;97.60
4755;DHT22;2391;47.212;7.542;2023-09-19T05:50:35;19.70;97.70
4755;DHT22;2391;47.212;7.542;2023-09-19T05:53:02;19.70;97.80
4755;DHT22;2391;47.212;7.542;2023-09-19T05:55:29;19.70;97.80
4755;DHT22;2391;47.212;7.542;2023-09-19T05:57:55;19.70;97.90
4755;DHT22;2391;47.212;7.542;2023-09-19T06:00:22;19.70;97.90
4755;DHT22;2391;47.212;7.542;2023-09-19T06:02:50;19.80;97.90
4755;DHT22;2391;47.212;7.542;2023-09-19T06:05:17;19.80;97.80
4755;DHT22;2391;47.212;7.542;2023-09-19T06:07:43;19.80;97.70
4755;DHT22;2391;47.212;7.542;2023-09-19T06:10:09;19.80;97.80
4755;DHT22;2391;47.212;7.542;2023-09-19T06:12:42;19.70;97.90
4755;DHT22;2391;47.212;7.542;2023-09-19T06:15:11;19.70;98.00
4755;DHT22;2391;47.212;7.542;2023-09-19T06:17:52;19.60;98.10
4755;DHT22;2391;47.212;7.542;2023-09-19T06:20:20;19.60;98.20
4755;DHT22;2391;47.212;7.542;2023-09-19T06:22:48;19.60;98.20
4755;DHT22;2391;47.212;7.542;2023-09-19T06:25:15;19.60;98.30
4755;DHT22;2391;47.212;7.542;2023-09-19T06:27:43;19.70;98.40
4755;DHT22;2391;47.212;7.542;2023-09-19T06:30:10;19.70;98.30
4755;DHT22;2391;47.212;7.542;2023-09-19T06:32:43;19.70;98.40
4755;DHT22;2391;47.212;7.542;2023-09-19T06:35:13;19.80;98.40
4755;DHT22;2391;47.212;7.542;2023-09-19T06:37:40;19.80;98.40
4755;DHT22;2391;47.212;7.542;2023-09-19T06:40:08;19.80;98.30
4755;DHT22;2391;47.212;7.542;2023-09-19T06:42:36;19.80;98.30
4755;DHT22;2391;47.212;7.542;2023-09-19T06:45:04;19.90;98.30
4755;DHT22;2391;47.212;7.542;2023-09-19T06:47:31;19.90;98.10
4755;DHT22;2391;47.212;7.542;2023-09-19T06:49:57;19.80;98.20
4755;DHT22;2391;47.212;7.542;2023-09-19T06:52:23;19.70;98.30
4755;DHT22;2391;47.212;7.542;2023-09-19T06:54:49;19.60;98.30
4755;DHT22;2391;47.212;7.542;2023-09-19T06:57:16;19.60;98.80
4755;DHT22;2391;47.212;7.542;2023-09-19T06:59:42;19.50;98.40
4755;DHT22;2391;47.212;7.542;2023-09-19T07:02:07;19.40;98.60
4755;DHT22;2391;47.212;7.542;2023-09-19T07:04:34;19.30;98.70
4755;DHT22;2391;47.212;7.542;2023-09-19T07:06:59;19.30;99.00
4755;DHT22;2391;47.212;7.542;2023-09-19T07:09:25;19.20;99.20
4755;DHT22;2391;47.212;7.542;2023-09-19T07:11:54;19.20;99.40
4755;DHT22;2391;47.212;7.542;2023-09-19T07:14:20;19.30;99.20
4755;DHT22;2391;47.212;7.542;2023-09-19T07:16:45;19.30;99.20
4755;DHT22;2391;47.212;7.542;2023-09-19T07:19:13;19.30;99.10
4755;DHT22;2391;47.212;7.542;2023-09-19T07:21:40;19.30;99.00
4755;DHT22;2391;47.212;7.542;2023-09-19T07:24:07;19.40;99.10
4755;DHT22;2391;47.212;7.542;2023-09-19T07:26:33;19.40;99.10
4755;DHT22;2391;47.212;7.542;2023-09-19T07:28:59;19.40;99.20
4755;DHT22;2391;47.212;7.542;2023-09-19T07:31:27;19.50;99.30
4755;DHT22;2391;47.212;7.542;2023-09-19T07:33:54;19.50;99.30
4755;DHT22;2391;47.212;7.542;2023-09-19T07:36:19;19.50;99.30
4755;DHT22;2391;47.212;7.542;2023-09-19T07:38:46;19.50;99.30
4755;DHT22;2391;47.212;7.542;2023-09-19T07:41:13;19.60;99.40
4755;DHT22;2391;47.212;7.542;2023-09-19T07:43:39;19.60;99.80
4755;DHT22;2391;47.212;7.542;2023-09-19T07:46:06;19.60;99.50
4755;DHT22;2391;47.212;7.542;2023-09-19T07:48:33;19.70;99.50
4755;DHT22;2391;47.212;7.542;2023-09-19T07:51:07;19.80;99.50
4755;DHT22;2391;47.212;7.542;2023-09-19T07:53:32;19.80;99.50
4755;DHT22;2391;47.212;7.542;2023-09-19T07:56:05;19.90;99.50
4755;DHT22;2391;47.212;7.542;2023-09-19T07:58:31;19.80;99.30
4755;DHT22;2391;47.212;7.542;2023-09-19T08:01:03;19.80;99.10
4755;DHT22;2391;47.212;7.542;2023-09-19T08:03:28;19.70;99.00
4755;DHT22;2391;47.212;7.542;2023-09-19T08:05:56;19.60;99.10
4755;DHT22;2391;47.212;7.542;2023-09-19T08:08:23;19.60;99.30
4755;DHT22;2391;47.212;7.542;2023-09-19T08:10:54;19.60;99.50
4755;DHT22;2391;47.212;7.542;2023-09-19T08:13:25;19.60;99.40
4755;DHT22;2391;47.212;7.542;2023-09-19T08:15:51;19.60;99.50
4755;DHT22;2391;47.212;7.542;2023-09-19T08:18:19;19.60;99.40
4755;DHT22;2391;47.212;7.542;2023-09-19T08:20:51;19.70;99.40
4755;DHT22;2391;47.212;7.542;2023-09-19T08:23:17;19.70;99.30
4755;DHT22;2391;47.212;7.542;2023-09-19T08:25:44;19.70;99.40
4755;DHT22;2391;47.212;7.542;2023-09-19T08:28:10;19.80;99.50
4755;DHT22;2391;47.212;7.542;2023-09-19T08:30:38;19.80;99.50
4755;DHT22;2391;47.212;7.542;2023-09-19T08:33:05;19.80;99.30
4755;DHT22;2391;47.212;7.542;2023-09-19T08:35:32;19.80;99.50
4755;DHT22;2391;47.212;7.542;2023-09-19T08:37:57;19.80;99.70
4755;DHT22;2391;47.212;7.542;2023-09-19T08:40:25;19.80;99.80
4755;DHT22;2391;47.212;7.542;2023-09-19T08:42:55;19.90;99.90
4755;DHT22;2391;47.212;7.542;2023-09-19T08:45:22;20.00;99.80
4755;DHT22;2391;47.212;7.542;2023-09-19T08:50:33;20.10;99.80
4755;DHT22;2391;47.212;7.542;2023-09-19T08:53:02;20.10;99.50
4755;DHT22;2391;47.212;7.542;2023-09-19T08:55:31;20.00;99.60
4755;DHT22;2391;47.212;7.542;2023-09-19T08:58:02;20.00;99.80
4755;DHT22;2391;47.212;7.542;2023-09-19T09:00:28;20.10;99.90
4755;DHT22;2391;47.212;7.542;2023-09-19T09:02:55;20.10;99.80
4755;DHT22;2391;47.212;7.542;2023-09-19T09:05:22;20.10;99.70
4755;DHT22;2391;47.212;7.542;2023-09-19T09:07:50;20.10;99.70
4755;DHT22;2391;47.212;7.542;2023-09-19T09:10:21;20.10;99.90
4755;DHT22;2391;47.212;7.542;2023-09-19T09:12:52;20.20;99.90
4755;DHT22;2391;47.212;7.542;2023-09-19T09:15:21;20.40;99.90
4755;DHT22;2391;47.212;7.542;2023-09-19T09:17:51;20.50;99.40
4755;DHT22;2391;47.212;7.542;2023-09-19T09:20:19;20.70;99.00
4755;DHT22;2391;47.212;7.542;2023-09-19T09:22:52;20.80;98.20
4755;DHT22;2391;47.212;7.542;2023-09-19T09:25:20;20.80;97.90
4755;DHT22;2391;47.212;7.542;2023-09-19T09:28:01;20.90;98.10
4755;DHT22;2391;47.212;7.542;2023-09-19T09:30:35;20.90;98.20
4755;DHT22;2391;47.212;7.542;2023-09-19T09:33:12;21.00;98.10
4755;DHT22;2391;47.212;7.542;2023-09-19T09:35:49;21.00;97.50
4755;DHT22;2391;47.212;7.542;2023-09-19T09:38:23;20.90;97.30
4755;DHT22;2391;47.212;7.542;2023-09-19T09:40:50;20.90;96.80
4755;DHT22;2391;47.212;7.542;2023-09-19T09:43:36;20.90;96.90
4755;DHT22;2391;47.212;7.542;2023-09-19T09:49:02;21.00;97.10
4755;DHT22;2391;47.212;7.542;2023-09-19T09:51:43;21.10;96.90
4755;DHT22;2391;47.212;7.542;2023-09-19T09:54:14;21.10;96.40
4755;DHT22;2391;47.212;7.542;2023-09-19T09:56:58;21.10;96.50
4755;DHT22;2391;47.212;7.542;2023-09-19T10:02:25;21.10;96.40
4755;DHT22;2391;47.212;7.542;2023-09-19T10:04:54;21.10;96.90
4755;DHT22;2391;47.212;7.542;2023-09-19T10:07:37;21.20;96.80
4755;DHT22;2391;47.212;7.542;2023-09-19T10:10:07;21.20;96.40
4755;DHT22;2391;47.212;7.542;2023-09-19T10:12:48;21.30;96.80
4755;DHT22;2391;47.212;7.542;2023-09-19T10:15:16;21.30;96.50
4755;DHT22;2391;47.212;7.542;2023-09-19T10:17:44;21.40;96.80
4755;DHT22;2391;47.212;7.542;2023-09-19T10:20:16;21.50;95.80
4755;DHT22;2391;47.212;7.542;2023-09-19T10:23:00;21.50;95.60
4755;DHT22;2391;47.212;7.542;2023-09-19T10:25:27;21.50;96.10
4755;DHT22;2391;47.212;7.542;2023-09-19T10:28:00;21.60;95.10
4755;DHT22;2391;47.212;7.542;2023-09-19T10:30:29;21.60;94.70
4755;DHT22;2391;47.212;7.542;2023-09-19T10:33:02;21.60;95.30
4755;DHT22;2391;47.212;7.542;2023-09-19T10:35:28;21.60;95.30
4755;DHT22;2391;47.212;7.542;2023-09-19T10:37:57;21.60;94.80
4755;DHT22;2391;47.212;7.542;2023-09-19T10:40:24;21.70;94.60
4755;DHT22;2391;47.212;7.542;2023-09-19T10:42:55;21.80;95.10
4755;DHT22;2391;47.212;7.542;2023-09-19T10:45:23;21.80;95.30
4755;DHT22;2391;47.212;7.542;2023-09-19T10:47:51;21.90;94.70
4755;DHT22;2391;47.212;7.542;2023-09-19T10:50:19;21.90;93.60
4755;DHT22;2391;47.212;7.542;2023-09-19T10:52:48;21.90;93.80
4755;DHT22;2391;47.212;7.542;2023-09-19T10:55:17;21.90;93.70
4755;DHT22;2391;47.212;7.542;2023-09-19T10:57:44;21.90;94.00
4755;DHT22;2391;47.212;7.542;2023-09-19T11:00:13;21.90;94.50
4755;DHT22;2391;47.212;7.542;2023-09-19T11:05:41;22.10;94.20
4755;DHT22;2391;47.212;7.542;2023-09-19T11:08:08;22.10;93.40
4755;DHT22;2391;47.212;7.542;2023-09-19T11:10:48;22.20;93.30
4755;DHT22;2391;47.212;7.542;2023-09-19T11:13:27;22.20;93.00
4755;DHT22;2391;47.212;7.542;2023-09-19T11:26:50;22.40;92.20
4755;DHT22;2391;47.212;7.542;2023-09-19T11:29:28;22.40;92.50
4755;DHT22;2391;47.212;7.542;2023-09-19T11:31:55;22.50;92.90
4755;DHT22;2391;47.212;7.542;2023-09-19T11:34:41;22.60;91.40
4755;DHT22;2391;47.212;7.542;2023-09-19T11:40:07;22.60;90.90
4755;DHT22;2391;47.212;7.542;2023-09-19T11:42:45;22.50;90.20
4755;DHT22;2391;47.212;7.542;2023-09-19T11:48:08;22.30;90.10
4755;DHT22;2391;47.212;7.542;2023-09-19T11:50:34;22.30;90.90
4755;DHT22;2391;47.212;7.542;2023-09-19T11:53:01;22.30;90.70
4755;DHT22;2391;47.212;7.542;2023-09-19T11:55:29;22.40;91.20
4755;DHT22;2391;47.212;7.542;2023-09-19T11:57:57;22.50;90.20
4755;DHT22;2391;47.212;7.542;2023-09-19T12:00:23;22.50;90.40
4755;DHT22;2391;47.212;7.542;2023-09-19T12:02:51;22.50;90.40
4755;DHT22;2391;47.212;7.542;2023-09-19T12:05:28;22.60;90.70
4755;DHT22;2391;47.212;7.542;2023-09-19T12:07:48;22.60;90.50
4755;DHT22;2391;47.212;7.542;2023-09-19T12:10:14;22.70;91.40
4755;DHT22;2391;47.212;7.542;2023-09-19T12:12:47;22.80;91.10
4755;DHT22;2391;47.212;7.542;2023-09-19T12:15:14;22.80;90.50
4755;DHT22;2391;47.212;7.542;2023-09-19T12:17:41;22.80;90.20
4755;DHT22;2391;47.212;7.542;2023-09-19T12:20:09;22.80;90.50
4755;DHT22;2391;47.212;7.542;2023-09-19T12:22:41;22.80;90.60
4755;DHT22;2391;47.212;7.542;2023-09-19T12:25:10;22.90;90.30
4755;DHT22;2391;47.212;7.542;2023-09-19T12:30:16;22.90;89.50
4755;DHT22;2391;47.212;7.542;2023-09-19T12:32:47;22.90;90.20
4755;DHT22;2391;47.212;7.542;2023-09-19T12:35:31;23.00;90.10
4755;DHT22;2391;47.212;7.542;2023-09-19T12:37:58;23.10;89.00
4755;DHT22;2391;47.212;7.542;2023-09-19T12:40:24;23.00;88.00
4755;DHT22;2391;47.212;7.542;2023-09-19T12:42:53;23.00;87.60
4755;DHT22;2391;47.212;7.542;2023-09-19T12:45:21;23.10;89.00
4755;DHT22;2391;47.212;7.542;2023-09-19T12:48:24;23.10;87.60
4755;DHT22;2391;47.212;7.542;2023-09-19T12:51:13;23.10;87.70
4755;DHT22;2391;47.212;7.542;2023-09-19T12:53:41;23.30;86.10
4755;DHT22;2391;47.212;7.542;2023-09-19T12:56:16;23.30;83.30
4755;DHT22;2391;47.212;7.542;2023-09-19T12:58:55;23.20;83.30
4755;DHT22;2391;47.212;7.542;2023-09-19T13:01:22;23.10;84.10
4755;DHT22;2391;47.212;7.542;2023-09-19T13:04:12;23.10;84.10
4755;DHT22;2391;47.212;7.542;2023-09-19T13:06:40;23.20;83.80
4755;DHT22;2391;47.212;7.542;2023-09-19T13:09:09;23.20;84.10
4755;DHT22;2391;47.212;7.542;2023-09-19T13:11:37;23.20;83.20
4755;DHT22;2391;47.212;7.542;2023-09-19T13:14:16;23.30;83.70
4755;DHT22;2391;47.212;7.542;2023-09-19T13:24:51;23.50;82.30
4755;DHT22;2391;47.212;7.542;2023-09-19T13:27:17;23.60;82.40
4755;DHT22;2391;47.212;7.542;2023-09-19T13:29:43;23.60;83.80
4755;DHT22;2391;47.212;7.542;2023-09-19T13:32:09;23.70;82.50
4755;DHT22;2391;47.212;7.542;2023-09-19T13:34:37;23.70;81.40
4755;DHT22;2391;47.212;7.542;2023-09-19T13:37:03;23.70;78.90
4755;DHT22;2391;47.212;7.542;2023-09-19T13:39:30;23.60;80.50
4755;DHT22;2391;47.212;7.542;2023-09-19T13:41:56;23.70;79.70
4755;DHT22;2391;47.212;7.542;2023-09-19T13:44:22;23.70;78.90
4755;DHT22;2391;47.212;7.542;2023-09-19T13:46:48;23.70;79.60
4755;DHT22;2391;47.212;7.542;2023-09-19T13:49:14;23.70;78.10
4755;DHT22;2391;47.212;7.542;2023-09-19T13:51:40;23.80;79.50
4755;DHT22;2391;47.212;7.542;2023-09-19T13:54:08;23.80;79.30
4755;DHT22;2391;47.212;7.542;2023-09-19T13:56:34;23.90;79.60
4755;DHT22;2391;47.212;7.542;2023-09-19T13:58:59;23.90;79.50
4755;DHT22;2391;47.212;7.542;2023-09-19T14:01:25;24.00;80.20
4755;DHT22;2391;47.212;7.542;2023-09-19T14:03:52;24.10;79.90
4755;DHT22;2391;47.212;7.542;2023-09-19T14:06:19;24.10;80.30
4755;DHT22;2391;47.212;7.542;2023-09-19T14:08:45;24.10;80.80
4755;DHT22;2391;47.212;7.542;2023-09-19T14:11:13;24.10;80.20
4755;DHT22;2391;47.212;7.542;2023-09-19T14:13:40;24.10;78.70
4755;DHT22;2391;47.212;7.542;2023-09-19T14:16:07;24.10;79.20
4755;DHT22;2391;47.212;7.542;2023-09-19T14:18:34;24.10;79.80
4755;DHT22;2391;47.212;7.542;2023-09-19T14:21:04;24.10;79.00
4755;DHT22;2391;47.212;7.542;2023-09-19T14:23:37;24.10;79.80
4755;DHT22;2391;47.212;7.542;2023-09-19T14:26:03;24.10;78.20
4755;DHT22;2391;47.212;7.542;2023-09-19T14:28:31;24.10;77.50
4755;DHT22;2391;47.212;7.542;2023-09-19T14:31:07;24.10;78.20
4755;DHT22;2391;47.212;7.542;2023-09-19T14:33:33;24.10;77.50
4755;DHT22;2391;47.212;7.542;2023-09-19T14:36:04;24.10;76.20
4755;DHT22;2391;47.212;7.542;2023-09-19T14:38:35;24.10;76.80
4755;DHT22;2391;47.212;7.542;2023-09-19T14:41:02;24.10;77.10
4755;DHT22;2391;47.212;7.542;2023-09-19T14:43:28;24.00;76.20
4755;DHT22;2391;47.212;7.542;2023-09-19T14:46:05;24.00;77.30
4755;DHT22;2391;47.212;7.542;2023-09-19T14:48:36;24.10;77.50
4755;DHT22;2391;47.212;7.542;2023-09-19T14:51:06;24.10;77.40
4755;DHT22;2391;47.212;7.542;2023-09-19T14:53:37;24.10;77.50
4755;DHT22;2391;47.212;7.542;2023-09-19T14:56:05;24.10;76.20
4755;DHT22;2391;47.212;7.542;2023-09-19T14:58:31;24.10;77.20
4755;DHT22;2391;47.212;7.542;2023-09-19T15:01:05;24.10;76.20
4755;DHT22;2391;47.212;7.542;2023-09-19T15:03:32;24.10;77.80
4755;DHT22;2391;47.212;7.542;2023-09-19T15:06:01;24.20;78.10
4755;DHT22;2391;47.212;7.542;2023-09-19T15:08:27;24.20;77.40
4755;DHT22;2391;47.212;7.542;2023-09-19T15:10:52;24.20;77.40
4755;DHT22;2391;47.212;7.542;2023-09-19T15:13:19;24.20;77.00
4755;DHT22;2391;47.212;7.542;2023-09-19T15:15:45;24.30;77.30
4755;DHT22;2391;47.212;7.542;2023-09-19T15:18:13;24.30;77.00
4755;DHT22;2391;47.212;7.542;2023-09-19T15:20:44;24.40;77.30
4755;DHT22;2391;47.212;7.542;2023-09-19T15:23:10;24.40;77.20
4755;DHT22;2391;47.212;7.542;2023-09-19T15:25:37;24.40;77.60
4755;DHT22;2391;47.212;7.542;2023-09-19T15:28:05;24.40;77.20
4755;DHT22;2391;47.212;7.542;2023-09-19T15:30:38;24.50;76.80
4755;DHT22;2391;47.212;7.542;2023-09-19T15:33:04;24.40;76.30
4755;DHT22;2391;47.212;7.542;2023-09-19T15:35:30;24.30;77.10
4755;DHT22;2391;47.212;7.542;2023-09-19T15:37:55;24.30;77.50
4755;DHT22;2391;47.212;7.542;2023-09-19T15:40:22;24.30;78.10
4755;DHT22;2391;47.212;7.542;2023-09-19T15:42:50;24.30;77.80
4755;DHT22;2391;47.212;7.542;2023-09-19T15:45:16;24.40;78.10
4755;DHT22;2391;47.212;7.542;2023-09-19T15:47:44;24.40;77.40
4755;DHT22;2391;47.212;7.542;2023-09-19T15:50:10;24.30;76.90
4755;DHT22;2391;47.212;7.542;2023-09-19T15:52:38;24.30;76.90
4755;DHT22;2391;47.212;7.542;2023-09-19T15:55:04;24.20;76.80
4755;DHT22;2391;47.212;7.542;2023-09-19T15:57:31;24.20;76.80
4755;DHT22;2391;47.212;7.542;2023-09-19T15:59:57;24.30;77.30
4755;DHT22;2391;47.212;7.542;2023-09-19T16:02:23;24.20;76.30
4755;DHT22;2391;47.212;7.542;2023-09-19T16:04:50;24.20;76.70
4755;DHT22;2391;47.212;7.542;2023-09-19T16:07:16;24.10;77.10
4755;DHT22;2391;47.212;7.542;2023-09-19T16:09:44;24.20;77.90
4755;DHT22;2391;47.212;7.542;2023-09-19T16:12:09;24.20;76.60
4755;DHT22;2391;47.212;7.542;2023-09-19T16:14:36;24.10;76.60
4755;DHT22;2391;47.212;7.542;2023-09-19T16:17:03;24.00;76.90
4755;DHT22;2391;47.212;7.542;2023-09-19T16:19:29;24.00;76.60
4755;DHT22;2391;47.212;7.542;2023-09-19T16:21:54;23.90;76.00
4755;DHT22;2391;47.212;7.542;2023-09-19T16:24:21;23.80;77.00
4755;DHT22;2391;47.212;7.542;2023-09-19T16:26:47;23.80;76.50
4755;DHT22;2391;47.212;7.542;2023-09-19T16:29:14;23.80;76.40
4755;DHT22;2391;47.212;7.542;2023-09-19T16:31:40;23.80;77.20
4755;DHT22;2391;47.212;7.542;2023-09-19T16:34:06;23.80;77.60
4755;DHT22;2391;47.212;7.542;2023-09-19T16:36:32;23.80;77.40
4755;DHT22;2391;47.212;7.542;2023-09-19T16:39:00;23.80;78.20
4755;DHT22;2391;47.212;7.542;2023-09-19T16:41:26;23.90;78.10
4755;DHT22;2391;47.212;7.542;2023-09-19T16:43:52;23.90;78.20
4755;DHT22;2391;47.212;7.542;2023-09-19T16:46:17;23.90;78.50
4755;DHT22;2391;47.212;7.542;2023-09-19T16:48:46;23.80;78.40
4755;DHT22;2391;47.212;7.542;2023-09-19T16:51:13;23.80;77.10
4755;DHT22;2391;47.212;7.542;2023-09-19T16:53:40;23.70;76.70
4755;DHT22;2391;47.212;7.542;2023-09-19T16:56:09;23.70;77.60
4755;DHT22;2391;47.212;7.542;2023-09-19T16:58:37;23.70;78.30
4755;DHT22;2391;47.212;7.542;2023-09-19T17:01:09;23.70;78.40
4755;DHT22;2391;47.212;7.542;2023-09-19T17:03:36;23.70;78.70
4755;DHT22;2391;47.212;7.542;2023-09-19T17:06:02;23.80;78.90